Time;durP1;ratioP1;P1;durP2;ratioP2;P2;SDS_P1;SDS_P2;PMS_P1;PMS_P2;Temp;Humidity;BMP_temperature;BMP_pressure;BME280_temperature;BME280_humidity;BME280_pressure;Samples;Min_cycle;Max_cycle;Signal;HPM_P1;HPM_P2
2022/12/02 00:01:27;;;;;;;35.20;19.02;;;4.30;99.90;;;;;;4979396;28;20058;-79
2022/12/02 00:03:55;;;;;;;39.35;20.25;;;4.30;99.90;;;;;;4977098;28;20141;-78
2022/12/02 00:06:31;;;;;;;38.28;20.05;;;4.30;99.90;;;;;;4975280;28;20051;-78
2022/12/02 00:09:08;;;;;;;42.72;21.25;;;4.30;99.90;;;;;;4972297;28;20055;-78
2022/12/02 00:11:35;;;;;;;38.72;20.00;;;4.30;99.90;;;;;;4952533;28;20424;-78
2022/12/02 00:14:14;;;;;;;40.95;19.73;;;4.30;99.90;;;;;;4969772;28;20061;-78
2022/12/02 00:16:41;;;;;;;44.90;21.23;;;4.30;99.90;;;;;;4985802;28;20074;-79
2022/12/02 00:19:08;;;;;;;39.60;20.70;;;4.30;99.90;;;;;;4981433;28;20054;-79
2022/12/02 00:21:35;;;;;;;39.05;19.33;;;4.30;99.90;;;;;;4981100;28;20488;-78
2022/12/02 00:24:02;;;;;;;40.65;20.30;;;4.30;99.90;;;;;;4978357;28;20047;-78
2022/12/02 00:26:28;;;;;;;39.17;19.85;;;4.30;99.90;;;;;;4981559;28;20428;-78
2022/12/02 00:28:55;;;;;;;35.30;20.02;;;4.30;99.90;;;;;;4972788;28;20047;-78
2022/12/02 00:31:22;;;;;;;35.83;19.83;;;4.30;99.90;;;;;;4954255;28;20047;-78
2022/12/02 00:33:48;;;;;;;38.17;19.48;;;4.40;99.90;;;;;;4977249;28;20051;-79
2022/12/02 00:36:15;;;;;;;38.25;19.50;;;4.40;99.90;;;;;;4969469;28;20083;-78
2022/12/02 00:38:42;;;;;;;38.60;19.27;;;4.50;99.90;;;;;;4980184;28;20054;-78
2022/12/02 00:41:08;;;;;;;38.40;19.25;;;4.50;99.90;;;;;;4968499;28;20054;-78
2022/12/02 00:46:33;;;;;;;37.60;18.90;;;4.50;99.90;;;;;;4980762;28;20070;-78
2022/12/02 00:49:09;;;;;;;37.80;20.17;;;4.40;99.90;;;;;;4981131;28;20412;-78
2022/12/02 00:51:37;;;;;;;39.25;20.58;;;4.50;99.90;;;;;;4967967;28;20062;-78
2022/12/02 00:54:05;;;;;;;37.70;19.67;;;4.50;99.90;;;;;;4980872;28;20051;-78
2022/12/02 00:56:32;;;;;;;46.22;20.45;;;4.50;99.90;;;;;;4987161;28;20583;-78
2022/12/02 00:59:00;;;;;;;39.95;19.73;;;4.50;99.90;;;;;;4984668;28;20058;-78
2022/12/02 01:01:27;;;;;;;44.60;19.13;;;4.60;99.90;;;;;;4984092;28;20118;-78
2022/12/02 01:03:55;;;;;;;36.72;20.27;;;4.60;99.90;;;;;;4980922;28;20047;-78
2022/12/02 01:06:21;;;;;;;41.50;20.42;;;4.60;99.90;;;;;;4979258;28;20054;-78
2022/12/02 01:08:48;;;;;;;35.97;19.15;;;4.60;99.90;;;;;;4979411;28;20043;-78
2022/12/02 01:11:16;;;;;;;44.60;21.17;;;4.60;99.90;;;;;;4972791;28;20050;-78
2022/12/02 01:13:43;;;;;;;40.15;19.58;;;4.60;99.90;;;;;;4976569;28;20059;-79
2022/12/02 01:16:09;;;;;;;40.70;21.73;;;4.60;99.90;;;;;;4980383;28;20111;-78
2022/12/02 01:18:36;;;;;;;37.92;19.50;;;4.60;99.90;;;;;;4989642;28;20082;-78
2022/12/02 01:21:03;;;;;;;37.42;19.67;;;4.60;99.90;;;;;;4971504;28;20618;-78
2022/12/02 01:23:30;;;;;;;39.42;19.17;;;4.50;99.90;;;;;;4987254;28;20126;-78
2022/12/02 01:25:56;;;;;;;48.90;21.95;;;4.50;99.90;;;;;;4984582;28;20112;-78
2022/12/02 01:28:23;;;;;;;38.55;19.48;;;4.50;99.90;;;;;;4980683;28;20058;-78
2022/12/02 01:30:50;;;;;;;44.35;21.25;;;4.40;99.90;;;;;;4980817;28;20087;-79
2022/12/02 01:33:16;;;;;;;40.55;21.00;;;4.40;99.90;;;;;;4978991;28;20051;-79
2022/12/02 01:35:43;;;;;;;39.83;21.40;;;4.30;99.90;;;;;;4962326;28;20264;-79
2022/12/02 01:38:10;;;;;;;43.70;20.90;;;4.30;99.90;;;;;;4990722;28;20066;-78
2022/12/02 01:40:36;;;;;;;40.65;21.00;;;4.20;99.90;;;;;;4996636;28;20041;-78
2022/12/02 01:43:03;;;;;;;50.25;23.58;;;4.20;99.90;;;;;;4984192;28;20038;-78
2022/12/02 01:45:30;;;;;;;45.45;23.02;;;4.20;99.90;;;;;;4988125;28;20513;-79
2022/12/02 01:47:59;;;;;;;46.28;21.80;;;4.30;99.90;;;;;;4976541;28;20074;-79
2022/12/02 01:50:27;;;;;;;40.72;21.27;;;4.30;99.90;;;;;;4973008;28;20046;-79
2022/12/02 01:52:53;;;;;;;37.47;19.45;;;4.30;99.90;;;;;;4972128;28;20070;-78
2022/12/02 01:55:26;;;;;;;43.53;21.17;;;4.40;99.90;;;;;;4964606;28;20055;-79
2022/12/02 01:57:54;;;;;;;44.92;22.38;;;4.40;99.90;;;;;;4994584;28;20035;-79
2022/12/02 02:00:21;;;;;;;41.67;21.13;;;4.40;99.90;;;;;;4973286;28;20035;-78
2022/12/02 02:02:48;;;;;;;42.38;21.60;;;4.40;99.90;;;;;;4991866;28;20034;-79
2022/12/02 02:05:18;;;;;;;41.88;21.05;;;4.30;99.90;;;;;;4976889;28;20119;-79
2022/12/02 02:07:48;;;;;;;47.42;22.48;;;4.40;99.90;;;;;;4978766;28;20072;-79
2022/12/02 02:10:15;;;;;;;46.47;21.90;;;4.30;99.90;;;;;;4959107;29;20062;-78
2022/12/02 02:12:44;;;;;;;42.92;21.05;;;4.30;99.90;;;;;;4970617;29;20493;-79
2022/12/02 02:15:12;;;;;;;44.20;21.35;;;4.30;99.90;;;;;;4984744;28;20054;-78
2022/12/02 02:17:38;;;;;;;41.63;19.77;;;4.20;99.90;;;;;;4970420;29;20057;-78
2022/12/02 02:20:09;;;;;;;42.92;20.25;;;4.30;99.90;;;;;;4970021;28;20059;-78
2022/12/02 02:22:42;;;;;;;42.40;21.25;;;4.20;99.90;;;;;;4985496;28;20089;-78
2022/12/02 02:25:14;;;;;;;41.80;20.73;;;4.30;99.90;;;;;;4973439;28;20041;-78
2022/12/02 02:27:54;;;;;;;45.40;22.20;;;4.30;99.90;;;;;;4983290;28;20051;-78
2022/12/02 02:30:21;;;;;;;47.03;22.08;;;4.20;99.90;;;;;;4982167;28;20134;-78
2022/12/02 02:32:49;;;;;;;45.88;21.55;;;4.20;99.90;;;;;;4981492;28;20035;-78
2022/12/02 02:35:18;;;;;;;43.92;21.88;;;4.20;99.90;;;;;;4975619;28;20047;-78
2022/12/02 02:37:45;;;;;;;44.78;21.15;;;4.20;99.90;;;;;;4971976;28;20058;-79
2022/12/02 02:40:15;;;;;;;50.60;21.83;;;4.20;99.90;;;;;;4970275;28;20047;-78
2022/12/02 02:42:48;;;;;;;43.03;20.05;;;4.20;99.90;;;;;;4969870;28;20078;-79
2022/12/02 02:45:15;;;;;;;45.38;21.95;;;4.10;99.90;;;;;;4967177;28;20047;-78
2022/12/02 02:47:42;;;;;;;49.40;23.67;;;4.20;99.90;;;;;;4982114;28;20067;-78
2022/12/02 02:50:09;;;;;;;53.97;25.73;;;4.20;99.90;;;;;;4980562;28;20062;-78
2022/12/02 02:52:35;;;;;;;50.60;23.33;;;4.20;99.90;;;;;;4969027;28;20052;-78
2022/12/02 02:55:04;;;;;;;47.08;22.27;;;4.20;99.90;;;;;;4973506;28;20059;-78
2022/12/02 02:57:32;;;;;;;43.88;22.42;;;4.20;99.90;;;;;;4955214;28;20130;-78
2022/12/02 02:59:59;;;;;;;55.90;23.45;;;4.20;99.90;;;;;;4971278;28;20423;-78
2022/12/02 03:02:26;;;;;;;49.85;22.65;;;4.20;99.90;;;;;;4975340;28;20063;-78
2022/12/02 03:04:53;;;;;;;53.33;24.27;;;4.20;99.90;;;;;;4985575;28;20424;-78
2022/12/02 03:07:20;;;;;;;50.42;24.35;;;4.20;99.90;;;;;;4967087;28;20047;-78
2022/12/02 03:09:48;;;;;;;48.17;21.60;;;4.20;99.90;;;;;;4975452;28;20086;-78
2022/12/02 03:12:16;;;;;;;52.70;24.10;;;4.20;99.90;;;;;;4977747;28;20051;-78
2022/12/02 03:14:43;;;;;;;57.25;24.30;;;4.20;99.90;;;;;;4969936;29;20086;-78
2022/12/02 03:17:11;;;;;;;52.80;24.15;;;4.20;99.90;;;;;;4970445;29;20059;-78
2022/12/02 03:19:38;;;;;;;56.58;25.70;;;4.20;99.90;;;;;;4977211;28;20041;-78
2022/12/02 03:22:05;;;;;;;52.03;23.10;;;4.30;99.90;;;;;;4970015;28;20111;-77
2022/12/02 03:24:32;;;;;;;50.58;26.17;;;4.30;99.90;;;;;;4980610;28;20051;-78
2022/12/02 03:27:00;;;;;;;60.42;25.40;;;4.30;99.90;;;;;;4981763;28;20042;-78
2022/12/02 03:29:28;;;;;;;51.13;21.65;;;4.30;99.90;;;;;;4969129;28;20513;-78
2022/12/02 03:31:58;;;;;;;53.78;24.13;;;4.20;99.90;;;;;;4977859;28;20114;-78
2022/12/02 03:34:25;;;;;;;53.65;25.80;;;4.20;99.90;;;;;;4977296;28;20477;-79
2022/12/02 03:36:52;;;;;;;54.25;25.00;;;4.20;99.90;;;;;;4976154;28;20059;-78
2022/12/02 03:39:19;;;;;;;57.53;25.10;;;4.20;99.90;;;;;;4954419;28;20512;-78
2022/12/02 03:41:47;;;;;;;60.03;25.10;;;4.30;99.90;;;;;;4971547;28;20138;-78
2022/12/02 03:44:14;;;;;;;58.25;24.92;;;4.20;99.90;;;;;;4969440;28;20055;-78
2022/12/02 03:46:42;;;;;;;49.58;23.75;;;4.30;99.90;;;;;;4985403;28;20058;-78
2022/12/02 03:49:10;;;;;;;50.53;22.35;;;4.30;99.90;;;;;;4965665;28;20047;-78
2022/12/02 03:51:37;;;;;;;56.95;24.58;;;4.20;99.90;;;;;;4981370;28;20050;-78
2022/12/02 03:54:04;;;;;;;54.22;23.92;;;4.20;99.90;;;;;;4968323;28;20488;-78
2022/12/02 03:56:36;;;;;;;59.53;25.02;;;4.20;99.90;;;;;;4968083;28;20074;-79
2022/12/02 03:59:03;;;;;;;64.75;25.27;;;4.20;99.90;;;;;;4974347;28;20051;-78
2022/12/02 04:01:30;;;;;;;58.08;25.88;;;4.20;99.90;;;;;;4955622;28;20054;-79
2022/12/02 04:03:57;;;;;;;54.85;24.95;;;4.20;99.90;;;;;;4966761;28;20047;-79
2022/12/02 04:06:24;;;;;;;53.67;25.50;;;4.20;99.90;;;;;;4976765;28;20053;-79
2022/12/02 04:08:51;;;;;;;59.13;25.05;;;4.30;99.90;;;;;;4986881;28;20057;-79
2022/12/02 04:11:17;;;;;;;59.13;25.90;;;4.30;99.90;;;;;;4969676;29;20047;-79
2022/12/02 04:13:44;;;;;;;56.17;24.02;;;4.30;99.90;;;;;;4960078;29;20107;-78
2022/12/02 04:16:11;;;;;;;58.17;25.65;;;4.30;99.90;;;;;;4973073;28;20053;-79
2022/12/02 04:18:37;;;;;;;56.83;24.80;;;4.30;99.90;;;;;;4979112;28;20076;-79
2022/12/02 04:21:04;;;;;;;60.40;26.15;;;4.30;99.90;;;;;;4977500;28;20065;-79
2022/12/02 04:23:31;;;;;;;49.92;23.27;;;4.30;99.90;;;;;;4956905;28;20043;-78
2022/12/02 04:25:58;;;;;;;61.20;25.73;;;4.30;99.90;;;;;;4972209;28;20564;-79
2022/12/02 04:28:24;;;;;;;52.53;24.10;;;4.30;99.90;;;;;;4983044;28;20084;-78
2022/12/02 04:30:51;;;;;;;54.90;23.92;;;4.30;99.90;;;;;;4971549;28;20059;-79
2022/12/02 04:33:18;;;;;;;55.08;23.45;;;4.40;99.90;;;;;;4983500;28;20107;-78
2022/12/02 04:35:45;;;;;;;56.53;26.15;;;4.40;99.90;;;;;;4981578;28;20082;-78
2022/12/02 04:38:11;;;;;;;53.58;23.48;;;4.40;99.90;;;;;;4979615;28;20065;-79
2022/12/02 04:40:38;;;;;;;61.95;25.98;;;4.40;99.90;;;;;;4959989;28;20054;-78
2022/12/02 04:43:05;;;;;;;57.60;24.95;;;4.40;99.90;;;;;;4970546;28;20048;-79
2022/12/02 04:45:32;;;;;;;53.25;23.52;;;4.40;99.90;;;;;;4973508;29;20047;-79
2022/12/02 04:47:59;;;;;;;54.35;24.50;;;4.40;99.90;;;;;;4983896;28;20047;-78
2022/12/02 04:50:25;;;;;;;50.63;23.35;;;4.40;99.90;;;;;;4974562;28;20057;-79
2022/12/02 04:52:52;;;;;;;57.10;24.75;;;4.40;99.90;;;;;;4975867;28;20050;-79
2022/12/02 04:55:19;;;;;;;50.67;24.67;;;4.30;99.90;;;;;;4978106;28;20420;-79
2022/12/02 04:57:46;;;;;;;59.35;24.77;;;4.30;99.90;;;;;;4977975;28;20047;-78
2022/12/02 05:00:13;;;;;;;57.03;25.20;;;4.30;99.90;;;;;;4970529;29;20055;-78
2022/12/02 05:02:40;;;;;;;53.15;23.42;;;4.30;99.90;;;;;;4972829;29;20139;-77
2022/12/02 05:05:07;;;;;;;54.20;23.85;;;4.40;99.90;;;;;;4985437;28;20094;-78
2022/12/02 05:07:33;;;;;;;51.28;23.90;;;4.30;99.90;;;;;;4993657;28;20106;-78
2022/12/02 05:10:00;;;;;;;58.85;24.48;;;4.30;99.90;;;;;;4974224;28;20103;-79
2022/12/02 05:12:27;;;;;;;55.05;24.90;;;4.30;99.90;;;;;;4971951;28;20106;-79
2022/12/02 05:14:54;;;;;;;60.90;24.63;;;4.40;99.90;;;;;;4976849;28;20054;-78
2022/12/02 05:17:20;;;;;;;50.78;24.58;;;4.40;99.90;;;;;;4967165;28;20051;-81
2022/12/02 05:19:47;;;;;;;51.03;23.85;;;4.50;99.90;;;;;;4971568;29;20079;-78
2022/12/02 05:22:14;;;;;;;66.80;26.38;;;4.60;99.90;;;;;;4962670;29;20063;-78
2022/12/02 05:24:40;;;;;;;51.67;22.65;;;4.50;99.90;;;;;;4973347;28;20051;-78
2022/12/02 05:27:07;;;;;;;61.10;25.92;;;4.50;99.90;;;;;;4972667;28;20413;-80
2022/12/02 05:29:34;;;;;;;56.92;24.25;;;4.50;99.90;;;;;;4972142;28;20051;-78
2022/12/02 05:32:00;;;;;;;56.85;24.55;;;4.40;99.90;;;;;;4971067;28;20407;-78
2022/12/02 05:34:27;;;;;;;57.80;24.67;;;4.40;99.90;;;;;;4974267;28;20122;-78
2022/12/02 05:36:54;;;;;;;58.28;24.25;;;4.40;99.90;;;;;;4987077;28;20624;-78
2022/12/02 05:39:21;;;;;;;59.88;24.75;;;4.40;99.90;;;;;;4984532;28;20078;-78
2022/12/02 05:41:48;;;;;;;62.20;25.83;;;4.40;99.90;;;;;;4980759;28;20057;-81
2022/12/02 05:44:19;;;;;;;57.10;25.17;;;4.40;99.90;;;;;;4959970;28;20043;-78
2022/12/02 05:46:47;;;;;;;54.70;24.30;;;4.40;99.90;;;;;;4972120;28;20055;-79
2022/12/02 05:49:17;;;;;;;55.97;24.90;;;4.40;99.90;;;;;;4975828;28;20400;-78
2022/12/02 05:51:44;;;;;;;;;;;4.40;99.90;;;;;;4974697;28;20047;-78
2022/12/02 05:54:19;;;;;;;59.40;24.90;;;4.40;99.90;;;;;;4989381;28;19926;-78
2022/12/02 05:56:47;;;;;;;53.33;24.15;;;4.40;99.90;;;;;;4988107;28;20520;-78
2022/12/02 05:59:18;;;;;;;60.17;25.75;;;4.50;99.90;;;;;;4984791;28;20078;-79
2022/12/02 06:01:51;;;;;;;61.28;24.83;;;4.50;99.90;;;;;;4987841;28;20079;-79
2022/12/02 06:04:21;;;;;;;69.47;27.02;;;4.50;99.90;;;;;;4982336;28;20058;-78
2022/12/02 06:06:48;;;;;;;62.92;26.05;;;4.50;99.90;;;;;;4979771;28;20057;-78
2022/12/02 06:09:19;;;;;;;68.57;27.15;;;4.40;99.90;;;;;;4980046;28;20054;-78
2022/12/02 06:11:46;;;;;;;;;;;4.50;99.90;;;;;;4975710;28;20114;-78
2022/12/02 06:14:15;;;;;;;60.38;24.80;;;4.50;99.90;;;;;;4989227;28;19980;-78
2022/12/02 06:16:48;;;;;;;56.40;24.80;;;4.50;99.90;;;;;;4996079;28;20139;-78
2022/12/02 06:19:25;;;;;;;67.32;26.60;;;4.50;99.90;;;;;;4975652;28;20074;-79
2022/12/02 06:21:53;;;;;;;67.53;26.73;;;4.60;99.90;;;;;;4987133;28;20047;-79
2022/12/02 06:24:31;;;;;;;64.05;26.33;;;4.50;99.90;;;;;;4988064;28;20403;-78
2022/12/02 06:27:01;;;;;;;68.35;27.42;;;4.40;99.90;;;;;;4969636;28;20130;-78
2022/12/02 06:29:30;;;;;;;68.90;28.27;;;4.40;99.90;;;;;;4983792;28;20035;-79
2022/12/02 06:31:58;;;;;;;65.40;25.85;;;4.40;99.90;;;;;;4981387;28;20054;-79
2022/12/02 06:34:37;;;;;;;82.68;27.83;;;4.50;99.90;;;;;;4958050;28;20106;-79
2022/12/02 06:37:19;;;;;;;65.00;28.58;;;4.50;99.90;;;;;;4949412;28;20138;-79
2022/12/02 06:39:48;;;;;;;71.82;28.63;;;4.50;99.90;;;;;;4968948;28;20051;-79
2022/12/02 06:42:37;;;;;;;74.63;28.30;;;4.60;99.90;;;;;;4960932;28;20055;-79
2022/12/02 06:45:23;;;;;;;71.38;27.95;;;4.50;99.90;;;;;;4970903;28;20047;-79
2022/12/02 06:48:06;;;;;;;67.93;26.58;;;4.50;99.90;;;;;;4961378;28;20491;-78
2022/12/02 06:50:40;;;;;;;76.95;29.70;;;4.50;99.90;;;;;;4971971;28;20079;-79
2022/12/02 06:53:30;;;;;;;73.32;26.60;;;4.50;99.90;;;;;;4971823;28;20051;-79
2022/12/02 06:56:10;;;;;;;81.60;28.60;;;4.40;99.90;;;;;;4988580;28;20051;-78
2022/12/02 06:58:44;;;;;;;70.65;26.92;;;4.40;99.90;;;;;;4977385;28;20070;-78
2022/12/02 07:01:19;;;;;;;70.20;26.88;;;4.40;99.90;;;;;;4974243;28;20051;-78
2022/12/02 07:04:01;;;;;;;81.18;29.38;;;4.40;99.90;;;;;;4965892;28;20059;-78
2022/12/02 07:06:29;;;;;;;72.22;26.85;;;4.40;99.90;;;;;;4967150;28;20047;-78
2022/12/02 07:08:59;;;;;;;80.40;27.95;;;4.40;99.90;;;;;;4951840;28;20054;-78
2022/12/02 07:11:54;;;;;;;72.43;26.52;;;4.50;99.90;;;;;;4987229;28;20070;-78
2022/12/02 07:14:43;;;;;;;74.32;25.95;;;4.50;99.90;;;;;;4993864;28;20030;-79
2022/12/02 07:17:28;;;;;;;79.57;28.20;;;4.40;99.90;;;;;;4981926;28;20066;-79
2022/12/02 07:20:10;;;;;;;81.63;27.15;;;4.40;99.90;;;;;;4993348;28;20041;-79
2022/12/02 07:22:46;;;;;;;74.47;28.13;;;4.40;99.90;;;;;;4967445;28;20420;-79
2022/12/02 07:25:16;;;;;;;78.15;28.45;;;4.40;99.90;;;;;;4983019;28;20055;-79
2022/12/02 07:27:47;;;;;;;80.78;28.77;;;4.40;99.90;;;;;;4978944;28;20047;-78
2022/12/02 07:30:28;;;;;;;78.18;27.95;;;4.40;99.90;;;;;;4977381;28;20053;-78
2022/12/02 07:32:56;;;;;;;78.80;27.02;;;4.40;99.90;;;;;;4983880;28;20058;-78
2022/12/02 07:35:23;;;;;;;80.30;28.05;;;4.40;99.90;;;;;;4970216;29;20063;-79
2022/12/02 07:37:50;;;;;;;83.78;28.40;;;4.40;99.90;;;;;;4956446;29;20127;-79
2022/12/02 07:40:18;;;;;;;77.68;29.27;;;4.50;99.90;;;;;;4972517;28;20058;-79
2022/12/02 07:42:44;;;;;;;85.40;29.58;;;4.50;99.90;;;;;;4970047;29;20111;-79
2022/12/02 07:45:12;;;;;;;87.43;28.38;;;4.50;99.90;;;;;;4969808;29;20071;-79
2022/12/02 07:47:39;;;;;;;68.35;26.90;;;4.50;99.90;;;;;;4975609;28;20107;-79
2022/12/02 07:50:07;;;;;;;78.88;29.48;;;4.50;99.90;;;;;;4966831;28;20048;-79
2022/12/02 07:52:35;;;;;;;84.68;28.67;;;4.50;99.90;;;;;;4964521;28;20043;-79
2022/12/02 07:55:02;;;;;;;86.93;29.45;;;4.50;99.90;;;;;;4983173;28;20051;-79
2022/12/02 07:57:29;;;;;;;73.68;28.80;;;4.50;99.90;;;;;;4966254;28;20055;-79
2022/12/02 08:00:02;;;;;;;83.63;30.25;;;4.60;99.90;;;;;;4972070;28;20050;-78
2022/12/02 08:02:29;;;;;;;70.25;27.73;;;4.70;99.90;;;;;;4968785;28;20141;-79
2022/12/02 08:04:56;;;;;;;78.13;27.63;;;4.60;99.90;;;;;;4983939;28;20118;-80
2022/12/02 08:07:23;;;;;;;79.65;28.35;;;4.60;99.90;;;;;;4981328;28;20059;-80
2022/12/02 08:09:49;;;;;;;81.53;27.65;;;4.70;99.90;;;;;;4979273;28;20111;-79
2022/12/02 08:12:16;;;;;;;69.40;26.75;;;4.60;99.90;;;;;;4977656;28;20076;-79
2022/12/02 08:14:43;;;;;;;68.78;26.55;;;4.60;99.90;;;;;;4975323;28;20061;-80
2022/12/02 08:17:09;;;;;;;75.68;29.50;;;4.60;99.90;;;;;;4969472;28;20129;-79
2022/12/02 08:19:36;;;;;;;73.25;27.70;;;4.70;99.90;;;;;;4980056;28;20050;-79
2022/12/02 08:22:03;;;;;;;70.38;27.48;;;4.70;99.90;;;;;;4983400;28;20058;-79
2022/12/02 08:24:29;;;;;;;64.93;28.25;;;4.80;99.90;;;;;;4975643;28;20449;-79
2022/12/02 08:26:56;;;;;;;68.70;24.40;;;4.80;99.90;;;;;;4989106;28;20051;-78
2022/12/02 08:29:23;;;;;;;74.03;27.92;;;4.80;99.90;;;;;;4985869;28;20106;-79
2022/12/02 08:31:50;;;;;;;66.25;24.80;;;4.80;99.90;;;;;;4975069;28;20046;-80
2022/12/02 08:34:17;;;;;;;65.55;26.02;;;4.80;99.90;;;;;;4974981;28;20106;-78
2022/12/02 08:36:43;;;;;;;64.18;26.33;;;4.80;99.90;;;;;;4977300;28;20055;-78
2022/12/02 08:39:10;;;;;;;65.45;24.73;;;4.80;99.90;;;;;;4990986;28;20051;-78
2022/12/02 08:41:37;;;;;;;77.20;24.58;;;4.70;99.90;;;;;;4988707;28;20039;-79
2022/12/02 08:44:04;;;;;;;60.55;25.35;;;4.80;99.90;;;;;;4987767;28;20054;-78
2022/12/02 08:46:32;;;;;;;66.38;25.30;;;4.90;99.90;;;;;;4981405;28;20047;-79
2022/12/02 08:48:59;;;;;;;61.45;24.08;;;4.80;99.90;;;;;;4983314;28;20053;-79
2022/12/02 08:51:26;;;;;;;66.20;25.55;;;4.70;99.90;;;;;;4964971;28;20051;-79
2022/12/02 08:53:53;;;;;;;63.53;26.17;;;4.80;99.90;;;;;;4979022;28;20456;-80
2022/12/02 08:56:20;;;;;;;55.30;23.92;;;4.80;99.90;;;;;;4984905;28;20062;-80
2022/12/02 08:58:46;;;;;;;57.05;22.48;;;4.90;99.90;;;;;;4981529;28;20057;-79
2022/12/02 09:01:13;;;;;;;55.50;23.30;;;4.90;99.90;;;;;;4982553;28;20524;-80
2022/12/02 09:03:40;;;;;;;56.83;24.83;;;5.00;99.90;;;;;;4979657;28;20074;-80
2022/12/02 09:06:06;;;;;;;55.40;22.13;;;5.00;99.90;;;;;;4973125;28;20070;-80
2022/12/02 09:08:33;;;;;;;54.45;22.55;;;4.90;99.90;;;;;;4970884;28;20050;-80
2022/12/02 09:11:00;;;;;;;48.72;21.02;;;4.80;99.90;;;;;;4985941;28;20484;-79
2022/12/02 09:13:27;;;;;;;55.42;22.83;;;4.80;99.90;;;;;;4980756;28;20061;-79
2022/12/02 09:15:53;;;;;;;50.25;22.45;;;4.90;99.90;;;;;;4968701;28;20644;-80
2022/12/02 09:18:20;;;;;;;57.45;22.65;;;5.00;99.90;;;;;;4984114;28;20050;-79
2022/12/02 09:20:47;;;;;;;52.60;22.75;;;5.00;99.90;;;;;;4984220;28;20110;-79
2022/12/02 09:23:14;;;;;;;59.30;24.08;;;5.10;99.90;;;;;;4971418;28;20125;-79
2022/12/02 09:25:40;;;;;;;55.70;22.10;;;5.10;99.90;;;;;;4969665;28;20049;-78
2022/12/02 09:28:07;;;;;;;54.30;22.58;;;5.10;99.90;;;;;;4981008;28;20042;-79
2022/12/02 09:30:34;;;;;;;54.78;22.20;;;5.20;99.90;;;;;;4981828;28;20047;-79
2022/12/02 09:33:02;;;;;;;48.17;21.02;;;5.20;99.90;;;;;;4982400;28;20094;-79
2022/12/02 09:35:28;;;;;;;48.67;20.08;;;5.30;99.90;;;;;;4964855;28;20054;-79
2022/12/02 09:37:55;;;;;;;50.38;21.38;;;5.30;99.90;;;;;;4975716;28;20046;-80
2022/12/02 09:40:25;;;;;;;57.05;22.90;;;5.40;99.90;;;;;;4970102;29;20062;-80
2022/12/02 09:42:52;;;;;;;50.38;21.63;;;5.40;99.90;;;;;;4976281;28;20061;-79
2022/12/02 09:45:19;;;;;;;59.70;23.02;;;5.30;99.90;;;;;;4975973;28;20505;-79
2022/12/02 09:47:45;;;;;;;54.88;22.65;;;5.30;99.90;;;;;;4976548;28;20138;-79
2022/12/02 09:50:13;;;;;;;51.80;21.40;;;5.30;99.90;;;;;;4973485;28;20051;-80
2022/12/02 09:52:40;;;;;;;51.28;22.85;;;5.30;99.90;;;;;;4966852;28;20053;-79
2022/12/02 09:55:13;;;;;;;46.58;19.60;;;5.40;99.90;;;;;;4979926;28;20063;-79
2022/12/02 09:57:40;;;;;;;51.72;21.98;;;5.50;99.90;;;;;;4962031;28;20496;-79
2022/12/02 10:00:19;;;;;;;49.83;20.73;;;5.60;99.90;;;;;;4981410;28;20051;-79
2022/12/02 10:02:51;;;;;;;51.63;21.00;;;5.60;99.90;;;;;;4976788;28;20554;-79
2022/12/02 10:05:21;;;;;;;46.85;20.17;;;5.60;99.90;;;;;;4978085;28;20051;-79
2022/12/02 10:07:49;;;;;;;44.13;19.63;;;5.70;99.90;;;;;;4979380;28;20042;-79
2022/12/02 10:10:22;;;;;;;49.25;20.27;;;5.70;99.90;;;;;;4976232;28;20057;-79
2022/12/02 10:12:49;;;;;;;57.08;20.77;;;5.70;99.90;;;;;;4977108;28;20048;-78
2022/12/02 10:15:23;;;;;;;43.40;20.00;;;5.70;99.90;;;;;;4977077;28;20082;-78
2022/12/02 10:17:51;;;;;;;47.33;21.70;;;5.80;99.90;;;;;;4980243;28;20050;-78
2022/12/02 10:20:24;;;;;;;46.63;20.42;;;5.80;99.90;;;;;;4980629;28;20058;-78
2022/12/02 10:23:11;;;;;;;48.78;20.55;;;5.80;99.90;;;;;;4978768;28;20101;-78
2022/12/02 10:25:41;;;;;;;49.40;20.15;;;5.90;99.90;;;;;;4976899;28;20055;-78
2022/12/02 10:28:25;;;;;;;39.90;18.48;;;5.90;99.90;;;;;;4959808;28;20073;-78
2022/12/02 10:30:56;;;;;;;44.40;19.88;;;6.00;99.90;;;;;;4977559;28;20054;-77
2022/12/02 10:33:25;;;;;;;44.65;19.20;;;6.00;99.90;;;;;;4984729;28;20051;-80
2022/12/02 10:35:53;;;;;;;41.70;18.55;;;6.00;99.90;;;;;;4979812;28;20058;-79
2022/12/02 10:38:34;;;;;;;42.38;18.38;;;6.00;99.90;;;;;;4963509;28;20060;-78
2022/12/02 10:41:11;;;;;;;47.00;19.45;;;6.10;99.90;;;;;;4960920;28;20509;-79
2022/12/02 10:43:38;;;;;;;44.42;20.50;;;6.10;99.90;;;;;;4964829;28;20059;-79
2022/12/02 10:46:06;;;;;;;44.10;19.33;;;6.10;99.90;;;;;;4979222;28;20053;-78
2022/12/02 10:48:35;;;;;;;43.13;20.08;;;6.10;99.90;;;;;;4975470;28;20130;-78
2022/12/02 10:51:02;;;;;;;44.95;20.23;;;6.20;99.90;;;;;;4976370;28;20055;-78
2022/12/02 10:53:29;;;;;;;42.00;19.33;;;6.20;99.90;;;;;;4966337;28;20057;-78
2022/12/02 10:55:57;;;;;;;47.50;20.35;;;6.30;99.90;;;;;;4974705;28;20051;-78
2022/12/02 10:58:28;;;;;;;39.95;18.60;;;6.30;99.90;;;;;;4976584;28;20066;-78
2022/12/02 11:00:56;;;;;;;40.47;18.85;;;6.20;99.90;;;;;;4974898;28;20051;-78
2022/12/02 11:03:24;;;;;;;41.95;20.15;;;6.00;99.90;;;;;;4975852;28;20078;-78
2022/12/02 11:05:51;;;;;;;38.15;17.75;;;6.00;99.90;;;;;;4966351;28;20062;-78
2022/12/02 11:08:20;;;;;;;39.47;18.10;;;5.90;99.90;;;;;;4971197;28;20120;-78
2022/12/02 11:10:50;;;;;;;36.30;17.40;;;5.90;99.90;;;;;;4968724;28;20043;-78
2022/12/02 11:13:17;;;;;;;36.35;18.58;;;5.90;99.90;;;;;;4967915;29;20460;-78
2022/12/02 11:15:51;;;;;;;38.15;18.40;;;5.90;99.90;;;;;;4968241;29;20094;-78
2022/12/02 11:18:24;;;;;;;40.38;19.38;;;5.80;99.90;;;;;;4965241;28;20054;-79
2022/12/02 11:21:00;;;;;;;46.75;20.48;;;5.70;99.90;;;;;;4979437;28;20057;-78
2022/12/02 11:23:29;;;;;;;41.38;19.75;;;5.70;99.90;;;;;;4976166;28;20107;-78
2022/12/02 11:26:00;;;;;;;40.85;19.00;;;5.70;99.90;;;;;;4977533;28;20051;-78
2022/12/02 11:28:26;;;;;;;39.53;19.15;;;5.80;99.90;;;;;;4953872;28;20047;-79
2022/12/02 11:31:08;;;;;;;46.95;20.10;;;5.80;99.90;;;;;;4949408;28;20580;-79
2022/12/02 11:33:50;;;;;;;43.42;19.80;;;5.80;99.90;;;;;;4963864;28;20051;-78
2022/12/02 11:36:24;;;;;;;38.53;18.17;;;5.70;99.90;;;;;;4968768;28;20070;-78
2022/12/02 11:38:50;;;;;;;40.90;19.77;;;5.60;99.90;;;;;;4979905;28;20062;-79
2022/12/02 11:41:22;;;;;;;39.30;18.80;;;5.60;99.90;;;;;;4964276;28;20090;-79
2022/12/02 11:44:20;;;;;;;42.47;18.27;;;5.70;99.90;;;;;;4957038;28;20062;-79
2022/12/02 11:46:53;;;;;;;36.30;18.27;;;5.70;99.90;;;;;;4969268;28;20137;-79
2022/12/02 11:49:39;;;;;;;37.53;17.65;;;5.70;99.90;;;;;;4966380;28;20133;-79
2022/12/02 11:52:10;;;;;;;44.47;18.25;;;5.70;99.90;;;;;;4964748;28;20043;-79
2022/12/02 11:54:46;;;;;;;37.78;19.25;;;5.70;99.90;;;;;;4972074;28;20440;-78
2022/12/02 11:57:29;;;;;;;41.25;18.80;;;5.70;99.90;;;;;;4965368;28;20058;-79
2022/12/02 11:59:57;;;;;;;37.53;18.17;;;5.70;99.90;;;;;;4962401;28;20050;-78
2022/12/02 12:02:24;;;;;;;37.85;18.77;;;5.60;99.90;;;;;;4963661;28;20065;-79
2022/12/02 12:05:05;;;;;;;39.20;18.42;;;5.60;99.90;;;;;;4974872;28;20051;-77
2022/12/02 12:07:44;;;;;;;40.80;18.23;;;5.70;99.90;;;;;;4972091;28;20134;-77
2022/12/02 12:10:27;;;;;;;41.63;18.70;;;5.80;99.90;;;;;;4958520;28;20712;-78
2022/12/02 12:13:14;;;;;;;35.80;17.02;;;5.80;99.90;;;;;;4952518;28;20054;-78
2022/12/02 12:15:59;;;;;;;36.83;18.27;;;5.80;99.90;;;;;;4968787;28;20051;-78
2022/12/02 12:18:46;;;;;;;40.15;18.55;;;5.70;99.90;;;;;;4955972;28;20054;-79
2022/12/02 12:21:41;;;;;;;35.80;18.17;;;5.70;99.90;;;;;;4978183;28;20114;-79
2022/12/02 12:24:20;;;;;;;31.80;16.30;;;5.70;99.90;;;;;;4964405;28;20493;-79
2022/12/02 12:26:49;;;;;;;34.63;16.63;;;5.80;99.90;;;;;;4953117;28;20039;-79
2022/12/02 12:29:16;;;;;;;32.58;16.45;;;5.80;99.90;;;;;;4970258;28;20051;-79
2022/12/02 12:31:43;;;;;;;34.72;16.95;;;5.80;99.90;;;;;;4978304;28;20046;-79
2022/12/02 12:34:10;;;;;;;42.67;17.65;;;5.80;99.90;;;;;;4991133;28;20057;-80
2022/12/02 12:36:38;;;;;;;36.47;16.73;;;5.90;99.90;;;;;;4991476;28;20095;-79
2022/12/02 12:39:05;;;;;;;35.70;18.33;;;5.90;99.90;;;;;;4987221;28;20074;-78
2022/12/02 12:41:32;;;;;;;40.33;18.48;;;5.90;99.90;;;;;;4972843;28;20041;-78
2022/12/02 12:44:19;;;;;;;38.55;17.63;;;5.90;99.90;;;;;;4965921;28;20050;-78
2022/12/02 12:46:49;;;;;;;36.22;17.05;;;5.90;99.90;;;;;;4979796;28;20090;-78
2022/12/02 12:49:15;;;;;;;31.45;16.52;;;5.90;99.90;;;;;;4977308;28;20046;-78
2022/12/02 12:51:42;;;;;;;33.20;16.80;;;5.90;99.90;;;;;;4979893;28;20145;-81
2022/12/02 12:54:09;;;;;;;35.53;17.98;;;6.00;99.90;;;;;;4973887;28;20055;-79